createdAt,value
2022-12-08T00:01:31.852Z,98450.08
2022-12-08T00:04:02.468Z,98460.70
2022-12-08T00:06:52.447Z,98469.93
2022-12-08T00:09:38.587Z,98465.55
2022-12-08T00:12:08.486Z,98460.33
2022-12-08T00:14:43.284Z,98466.86
2022-12-08T00:17:13.915Z,98469.58
2022-12-08T00:19:44.179Z,98446.16
2022-12-08T00:22:15.556Z,98466.25
2022-12-08T00:24:50.088Z,98435.78
2022-12-08T00:27:20.419Z,98448.47
2022-12-08T00:29:50.426Z,98453.09
2022-12-08T00:32:20.527Z,98462.10
2022-12-08T00:34:50.795Z,98450.08
2022-12-08T00:37:20.634Z,98448.94
2022-12-08T00:39:54.028Z,98455.22
2022-12-08T00:42:24.525Z,98465.02
2022-12-08T00:44:55.848Z,98465.55
2022-12-08T00:47:38.788Z,98462.77
2022-12-08T00:49:59.002Z,98467.97
2022-12-08T00:52:29.244Z,98475.09
2022-12-08T00:54:59.572Z,98498.91
2022-12-08T00:57:41.807Z,98514.45
2022-12-08T01:00:12.887Z,98532.30
2022-12-08T01:02:43.454Z,98518.73
2022-12-08T01:05:13.472Z,98538.42
2022-12-08T01:07:45.038Z,98527.05
2022-12-08T01:10:15.196Z,98503.07
2022-12-08T01:12:45.860Z,98489.81
2022-12-08T01:15:16.507Z,98481.69
2022-12-08T01:17:46.506Z,98489.94
2022-12-08T01:20:16.505Z,98486.73
2022-12-08T01:22:46.428Z,98481.94
2022-12-08T01:25:18.723Z,98454.21
2022-12-08T01:27:49.479Z,98443.64
2022-12-08T01:30:20.392Z,98442.68
2022-12-08T01:32:50.225Z,98431.83
2022-12-08T01:35:20.250Z,98428.92
2022-12-08T01:37:50.300Z,98428.19
2022-12-08T01:40:20.319Z,98433.70
2022-12-08T01:42:54.172Z,98444.33
2022-12-08T01:45:32.050Z,98438.87
2022-12-08T01:48:04.838Z,98448.14
2022-12-08T01:50:35.273Z,98459.94
2022-12-08T01:53:10.519Z,98460.48
2022-12-08T01:55:46.163Z,98473.05
2022-12-08T01:58:21.671Z,98495.16
2022-12-08T02:00:51.975Z,98502.81
2022-12-08T02:03:30.389Z,98495.16
2022-12-08T02:06:00.400Z,98501.98
2022-12-08T02:08:30.307Z,98504.48
2022-12-08T02:11:00.627Z,98509.95
2022-12-08T02:13:30.912Z,98515.95
2022-12-08T02:16:26.443Z,98512.67
2022-12-08T02:19:31.255Z,98514.81
2022-12-08T02:22:02.734Z,98529.05
2022-12-08T02:25:05.508Z,98542.38
2022-12-08T02:27:56.089Z,98561.20
2022-12-08T02:30:32.966Z,98532.55
2022-12-08T02:33:19.193Z,98532.55
2022-12-08T02:36:01.902Z,98517.25
2022-12-08T02:38:50.867Z,98521.89
2022-12-08T02:44:47.629Z,98508.69
2022-12-08T02:47:21.645Z,98537.66
2022-12-08T02:49:51.538Z,98542.80
2022-12-08T02:52:27.728Z,98515.23
2022-12-08T02:55:07.738Z,98496.67
2022-12-08T02:57:58.508Z,98508.34
2022-12-08T03:00:29.585Z,98524.72
2022-12-08T03:03:11.780Z,98514.28
2022-12-08T03:05:45.076Z,98493.28
2022-12-08T03:08:20.954Z,98478.27
2022-12-08T03:10:57.172Z,98464.88
2022-12-08T03:13:34.449Z,98458.57
2022-12-08T03:16:05.556Z,98437.28
2022-12-08T03:18:35.810Z,98423.35
2022-12-08T03:21:08.123Z,98431.00
2022-12-08T03:23:56.268Z,98423.04
2022-12-08T03:26:38.502Z,98429.58
2022-12-08T03:29:08.705Z,98425.03
2022-12-08T03:31:54.267Z,98430.66
2022-12-08T03:34:25.228Z,98415.05
2022-12-08T03:36:56.487Z,98416.96
2022-12-08T03:39:29.047Z,98410.36
2022-12-08T03:41:59.085Z,98414.66
2022-12-08T03:44:36.074Z,98428.04
2022-12-08T03:47:05.902Z,98449.04
2022-12-08T03:49:41.594Z,98455.86
2022-12-08T03:52:11.899Z,98466.77
2022-12-08T03:54:42.357Z,98447.08
2022-12-08T03:57:12.314Z,98423.57
2022-12-08T04:00:00.198Z,98408.57
2022-12-08T04:02:40.387Z,98388.88
2022-12-08T04:05:10.716Z,98398.14
2022-12-08T04:07:40.867Z,98416.41
2022-12-08T04:10:11.822Z,98407.37
2022-12-08T04:12:41.902Z,98418.00
2022-12-08T04:15:12.939Z,98431.04
2022-12-08T04:17:42.979Z,98438.94
2022-12-08T04:20:47.906Z,98455.84
2022-12-08T04:23:21.946Z,98439.48
2022-12-08T04:29:35.549Z,98376.69
2022-12-08T04:32:16.117Z,98380.45
2022-12-08T04:38:14.495Z,98386.17
2022-12-08T04:40:48.769Z,98405.48
2022-12-08T04:43:45.626Z,98410.12
2022-12-08T04:46:16.143Z,98407.93
2022-12-08T04:48:47.461Z,98393.70
2022-12-08T04:51:20.064Z,98398.55
2022-12-08T04:53:51.828Z,98392.27
2022-12-08T04:56:24.296Z,98376.16
2022-12-08T05:01:36.853Z,98358.24
2022-12-08T05:04:07.253Z,98356.48
2022-12-08T05:06:43.420Z,98353.41
2022-12-08T05:09:14.893Z,98357.25
2022-12-08T05:11:49.427Z,98356.95
2022-12-08T05:14:35.783Z,98360.73
2022-12-08T05:17:09.484Z,98348.19
2022-12-08T05:19:37.748Z,98353.63
2022-12-08T05:22:08.198Z,98336.67
2022-12-08T05:24:43.991Z,98332.58
2022-12-08T05:27:12.344Z,98341.53
2022-12-08T05:29:42.462Z,98364.70
2022-12-08T05:32:12.893Z,98374.50
2022-12-08T05:34:43.054Z,98371.23
2022-12-08T05:37:19.224Z,98353.77
2022-12-08T05:40:10.799Z,98359.98
2022-12-08T05:42:47.264Z,98375.52
2022-12-08T05:45:26.946Z,98401.42
2022-12-08T05:47:57.810Z,98389.38
2022-12-08T05:50:28.557Z,98380.91
2022-12-08T05:52:59.381Z,98381.95
2022-12-08T05:55:34.743Z,98384.94
2022-12-08T05:58:08.028Z,98346.28
2022-12-08T06:00:36.534Z,98342.09
2022-12-08T06:03:06.969Z,98347.25
2022-12-08T06:05:37.102Z,98333.63
2022-12-08T06:08:09.977Z,98331.34
2022-12-08T06:10:45.218Z,98359.97
2022-12-08T06:13:24.453Z,98359.69
2022-12-08T06:15:57.512Z,98335.16
2022-12-08T06:18:32.701Z,98309.45
2022-12-08T06:21:08.332Z,98342.45
2022-12-08T06:23:39.827Z,98365.84
2022-12-08T06:26:12.148Z,98367.45
2022-12-08T06:28:42.471Z,98353.00
2022-12-08T06:31:15.474Z,98335.28
2022-12-08T06:33:45.700Z,98323.02
2022-12-08T06:36:16.134Z,98335.73
2022-12-08T06:38:46.783Z,98355.06
2022-12-08T06:41:19.931Z,98345.52
2022-12-08T06:43:50.384Z,98321.00
2022-12-08T06:46:27.655Z,98289.82
2022-12-08T06:49:18.787Z,98262.28
2022-12-08T06:51:55.259Z,98251.16
2022-12-08T06:54:26.599Z,98269.32
2022-12-08T06:57:02.380Z,98286.75
2022-12-08T06:59:33.083Z,98274.74
2022-12-08T07:02:05.726Z,98271.16
2022-12-08T07:04:36.124Z,98267.93
2022-12-08T07:07:26.984Z,98256.44
2022-12-08T07:10:00.316Z,98255.61
2022-12-08T07:12:33.614Z,98253.39
2022-12-08T07:15:05.637Z,98254.98
2022-12-08T07:17:36.284Z,98247.85
2022-12-08T07:20:07.653Z,98229.03
2022-12-08T07:22:42.817Z,98206.42
2022-12-08T07:25:32.221Z,98210.45
2022-12-08T07:34:15.160Z,98197.81
2022-12-08T07:37:00.147Z,98206.58
2022-12-08T07:39:34.446Z,98208.71
2022-12-08T07:42:10.118Z,98204.34
2022-12-08T07:44:41.049Z,98193.98
2022-12-08T08:04:30.227Z,98307.86
2022-12-08T08:07:03.138Z,98274.51
2022-12-08T08:09:40.059Z,98262.44
2022-12-08T08:18:22.368Z,98246.26
2022-12-08T08:33:04.966Z,98194.05
2022-12-08T08:35:43.283Z,98194.64
2022-12-08T08:38:14.225Z,98199.02
2022-12-08T08:40:53.764Z,98210.16
2022-12-08T08:43:37.585Z,98202.22
2022-12-08T08:46:03.250Z,98208.20
2022-12-08T08:48:42.098Z,98197.02
2022-12-08T08:51:13.883Z,98198.89
2022-12-08T08:53:47.119Z,98189.36
2022-12-08T08:56:22.131Z,98191.80
2022-12-08T08:58:53.063Z,98189.61
2022-12-08T09:01:25.890Z,98192.56
2022-12-08T09:03:56.608Z,98193.38
2022-12-08T09:06:55.153Z,98191.96
2022-12-08T09:09:32.739Z,98198.77
2022-12-08T09:12:20.780Z,98187.31
2022-12-08T09:14:50.130Z,98174.23
2022-12-08T09:17:20.499Z,98183.22
2022-12-08T09:19:50.867Z,98191.61
2022-12-08T09:22:22.917Z,98202.77
2022-12-08T09:24:53.303Z,98200.32
2022-12-08T09:27:26.491Z,98183.10
2022-12-08T09:29:57.232Z,98162.91
2022-12-08T09:32:28.171Z,98154.99
2022-12-08T09:34:59.177Z,98125.27
2022-12-08T09:37:30.307Z,98125.27
2022-12-08T09:40:01.297Z,98156.30
2022-12-08T09:42:46.270Z,98193.33
2022-12-08T09:45:22.695Z,98198.77
2022-12-08T09:48:10.477Z,98190.61
2022-12-08T09:50:47.340Z,98179.37
2022-12-08T09:53:30.602Z,98170.13
2022-12-08T09:56:01.143Z,98169.59
2022-12-08T09:58:39.619Z,98149.97
2022-12-08T10:01:11.995Z,98153.51
2022-12-08T10:03:59.131Z,98151.33
2022-12-08T10:06:35.398Z,98176.05
2022-12-08T10:09:32.393Z,98189.91
2022-12-08T10:12:30.385Z,98215.99
2022-12-08T10:18:33.503Z,98260.63
2022-12-08T10:21:06.420Z,98255.69
2022-12-08T10:23:37.635Z,98252.39
2022-12-08T10:26:15.297Z,98247.77
2022-12-08T10:28:45.857Z,98244.22
2022-12-08T10:31:20.649Z,98231.44
2022-12-08T10:33:52.429Z,98231.66
2022-12-08T10:36:22.898Z,98223.74
2022-12-08T10:38:53.286Z,98226.47
2022-12-08T10:41:23.367Z,98253.91
2022-12-08T10:43:58.135Z,98259.88
2022-12-08T10:46:31.296Z,98237.28
2022-12-08T10:49:10.578Z,98243.02
2022-12-08T10:51:44.643Z,98234.56
2022-12-08T10:54:20.556Z,98231.53
2022-12-08T10:56:47.487Z,98231.84
2022-12-08T10:59:18.746Z,98233.20
2022-12-08T11:01:51.059Z,98241.59
2022-12-08T11:04:35.716Z,98240.16
2022-12-08T11:07:07.271Z,98229.28
2022-12-08T11:09:49.754Z,98240.16
2022-12-08T11:12:20.001Z,98242.06
2022-12-08T11:14:53.822Z,98226.80
2022-12-08T11:17:36.756Z,98232.75
2022-12-08T11:20:14.982Z,98233.00
2022-12-08T11:22:45.698Z,98229.45
2022-12-08T11:25:29.399Z,98239.81
2022-12-08T11:28:01.858Z,98229.74
2022-12-08T11:30:40.879Z,98216.86
2022-12-08T11:33:24.504Z,98228.29
2022-12-08T11:36:07.993Z,98240.00
2022-12-08T11:38:38.196Z,98239.71
2022-12-08T11:41:16.091Z,98236.70
2022-12-08T11:44:11.309Z,98235.02
2022-12-08T11:46:44.136Z,98248.34
2022-12-08T11:49:15.014Z,98242.43
2022-12-08T11:51:59.439Z,98245.79
2022-12-08T11:54:40.480Z,98242.59
2022-12-08T11:57:21.403Z,98233.42
2022-12-08T11:59:53.037Z,98243.34
2022-12-08T12:02:26.351Z,98256.22
2022-12-08T12:05:33.255Z,98240.02
2022-12-08T12:08:14.173Z,98244.30
2022-12-08T12:10:53.139Z,98251.52
2022-12-08T12:13:59.512Z,98252.19
2022-12-08T12:16:50.908Z,98262.38
2022-12-08T12:19:21.198Z,98254.97
2022-12-08T12:21:56.702Z,98245.42
2022-12-08T12:24:34.199Z,98233.60
2022-12-08T12:27:02.783Z,98222.82
2022-12-08T12:29:33.894Z,98232.20
2022-12-08T12:32:09.987Z,98253.95
2022-12-08T12:34:43.636Z,98235.01
2022-12-08T12:37:13.720Z,98232.17
2022-12-08T12:39:52.064Z,98236.66
2022-12-08T12:42:46.823Z,98245.77
2022-12-08T12:45:22.438Z,98234.15
2022-12-08T12:48:01.018Z,98231.76
2022-12-08T12:50:47.847Z,98241.41
2022-12-08T12:53:23.730Z,98236.94
2022-12-08T12:56:04.433Z,98237.87
2022-12-08T12:58:37.381Z,98238.52
2022-12-08T13:01:16.272Z,98241.03
2022-12-08T13:03:51.158Z,98244.44
2022-12-08T13:06:29.077Z,98235.76
2022-12-08T13:08:59.589Z,98230.17
2022-12-08T13:11:29.735Z,98235.42
2022-12-08T13:14:04.139Z,98240.38
2022-12-08T13:16:38.468Z,98247.84
2022-12-08T13:19:10.447Z,98249.85
2022-12-08T13:21:41.203Z,98247.73
2022-12-08T13:24:20.921Z,98237.69
2022-12-08T13:26:51.822Z,98227.95
2022-12-08T13:29:28.801Z,98233.50
2022-12-08T13:31:59.437Z,98225.63
2022-12-08T13:34:48.125Z,98230.36
2022-12-08T13:37:33.107Z,98226.05
2022-12-08T13:40:09.773Z,98226.14
2022-12-08T13:42:50.649Z,98235.78
2022-12-08T13:58:37.994Z,98243.31
2022-12-08T14:01:18.950Z,98250.77
2022-12-08T14:04:31.066Z,98246.16
2022-12-08T14:06:33.182Z,98250.04
2022-12-08T14:09:10.277Z,98253.94
2022-12-08T14:11:40.365Z,98258.86
2022-12-08T14:14:11.722Z,98265.69
2022-12-08T14:16:42.947Z,98274.98
2022-12-08T14:19:21.045Z,98276.34
2022-12-08T14:22:08.258Z,98282.87
2022-12-08T14:24:37.906Z,98268.66
2022-12-08T14:27:11.579Z,98260.97
2022-12-08T14:30:00.162Z,98261.82
2022-12-08T14:32:35.064Z,98269.70
2022-12-08T14:35:10.464Z,98282.55
2022-12-08T14:37:53.587Z,98283.64
2022-12-08T14:40:36.189Z,98287.73
2022-12-08T14:43:11.627Z,98283.64
2022-12-08T14:45:47.208Z,98289.10
2022-12-08T14:48:24.466Z,98291.52
2022-12-08T14:51:14.946Z,98282.78
2022-12-08T14:53:50.056Z,98278.41
2022-12-08T14:56:27.163Z,98270.45
2022-12-08T14:59:21.385Z,98270.45
2022-12-08T15:01:51.940Z,98259.52
2022-12-08T15:04:24.549Z,98241.31
2022-12-08T15:07:17.919Z,98263.88
2022-12-08T15:09:52.239Z,98273.98
2022-12-08T15:12:27.161Z,98275.90
2022-12-08T15:15:03.611Z,98275.05
2022-12-08T15:17:45.379Z,98261.92
2022-12-08T15:20:37.869Z,98264.66
2022-12-08T15:23:07.934Z,98254.52
2022-12-08T15:25:37.983Z,98269.54
2022-12-08T15:28:08.016Z,98278.28
2022-12-08T15:30:38.465Z,98285.11
2022-12-08T15:33:08.394Z,98275.81
2022-12-08T15:35:40.952Z,98273.59
2022-12-08T15:38:11.972Z,98277.41
2022-12-08T15:40:42.278Z,98283.70
2022-12-08T15:43:13.232Z,98273.86
2022-12-08T15:45:57.997Z,98281.77
2022-12-08T15:48:22.212Z,98278.19
2022-12-08T15:50:52.313Z,98279.56
2022-12-08T15:53:22.288Z,98283.38
2022-12-08T15:56:25.944Z,98285.83
2022-12-08T16:00:58.338Z,98297.53
2022-12-08T16:06:50.872Z,98282.74
2022-12-08T16:08:49.380Z,98288.98
2022-12-08T16:12:03.847Z,98297.72
2022-12-08T16:14:19.889Z,98289.53
2022-12-08T16:16:31.915Z,98283.51
2022-12-08T16:19:02.186Z,98288.66
2022-12-08T16:22:17.305Z,98286.47
2022-12-08T16:24:09.036Z,98292.48
2022-12-08T16:27:50.760Z,98298.99
2022-12-08T16:29:07.223Z,98294.62
2022-12-08T16:31:37.198Z,98292.43
2022-12-08T16:34:07.090Z,98288.53
2022-12-08T16:36:37.040Z,98287.44
2022-12-08T16:39:06.919Z,98277.05
2022-12-08T16:41:54.000Z,98273.19
2022-12-08T16:44:24.637Z,98267.96
2022-12-08T16:46:54.599Z,98274.79
2022-12-08T16:49:27.574Z,98265.23
2022-12-08T16:51:58.589Z,98273.14
2022-12-08T16:54:30.865Z,98269.83
2022-12-08T16:57:01.657Z,98270.91
2022-12-08T16:59:31.972Z,98270.91
2022-12-08T17:02:02.544Z,98267.59
2022-12-08T17:04:33.542Z,98268.95
2022-12-08T17:07:04.142Z,98268.95
2022-12-08T17:09:34.369Z,98263.77
2022-12-08T17:12:04.647Z,98259.66
2022-12-08T17:14:37.681Z,98249.52
2022-12-08T17:17:07.637Z,98248.70
2022-12-08T17:19:38.575Z,98259.85
2022-12-08T17:22:08.491Z,98254.66
2022-12-08T17:24:38.784Z,98245.61
2022-12-08T17:27:08.877Z,98240.15
2022-12-08T17:29:38.731Z,98235.00
2022-12-08T17:32:10.659Z,98231.41
2022-12-08T17:34:40.549Z,98223.73
2022-12-08T17:37:10.859Z,98219.63
2022-12-08T17:39:41.037Z,98221.84
2022-12-08T17:42:11.114Z,98214.17
2022-12-08T17:44:41.002Z,98219.35
2022-12-08T17:47:10.867Z,98198.29
2022-12-08T17:49:41.013Z,98191.77
2022-12-08T17:52:11.826Z,98179.49
2022-12-08T17:54:41.851Z,98180.55
2022-12-08T17:57:12.023Z,98183.58
2022-12-08T17:59:42.044Z,98177.27
2022-12-08T18:02:12.944Z,98180.55
2022-12-08T18:04:43.241Z,98175.09
2022-12-08T18:07:13.292Z,98174.80
2022-12-08T18:09:43.535Z,98169.89
2022-12-08T18:12:16.949Z,98155.98
2022-12-08T18:14:46.963Z,98151.30
2022-12-08T18:17:17.039Z,98145.84
2022-12-08T18:19:47.868Z,98142.28
2022-12-08T18:22:17.666Z,98135.19
2022-12-08T18:24:48.574Z,98130.83
2022-12-08T18:27:18.830Z,98120.99
2022-12-08T18:29:48.842Z,98122.91
2022-12-08T18:32:19.163Z,98117.44
2022-12-08T18:34:49.260Z,98111.16
2022-12-08T18:37:19.299Z,98103.52
2022-12-08T18:39:49.232Z,98105.70
2022-12-08T18:42:25.804Z,98106.76
2022-12-08T18:45:07.389Z,98091.23
2022-12-08T18:47:40.689Z,98090.11
2022-12-08T18:50:11.949Z,98089.56
2022-12-08T18:52:42.041Z,98083.83
2022-12-08T18:55:12.112Z,98083.28
2022-12-08T18:57:44.145Z,98088.74
2022-12-08T19:00:16.162Z,98084.64
2022-12-08T19:02:46.409Z,98085.42
2022-12-08T19:05:16.558Z,98082.15
2022-12-08T19:07:46.682Z,98082.70
2022-12-08T19:10:16.655Z,98078.33
2022-12-08T19:12:46.788Z,98085.97
2022-12-08T19:15:16.747Z,98085.15
2022-12-08T19:17:46.709Z,98083.78
2022-12-08T19:20:17.127Z,98079.38
2022-12-08T19:22:47.326Z,98072.28
2022-12-08T19:25:17.387Z,98068.19
2022-12-08T19:27:47.668Z,98070.92
2022-12-08T19:30:18.015Z,98068.73
2022-12-08T19:32:48.093Z,98069.81
2022-12-08T19:35:18.193Z,98081.02
2022-12-08T19:37:48.136Z,98078.83
2022-12-08T19:40:35.686Z,98073.37
2022-12-08T19:43:23.001Z,98070.64
2022-12-08T19:45:53.207Z,98062.14
2022-12-08T19:48:23.353Z,98060.78
2022-12-08T19:50:53.432Z,98053.68
2022-12-08T19:53:25.080Z,98053.92
2022-12-08T19:55:55.141Z,98049.31
2022-12-08T19:58:25.170Z,98044.36
2022-12-08T20:00:56.052Z,98030.20
2022-12-08T20:03:26.534Z,98037.55
2022-12-08T20:05:56.625Z,98038.09
2022-12-08T20:08:26.905Z,98038.91
2022-12-08T20:10:59.258Z,98037.27
2022-12-08T20:13:46.313Z,98039.17
2022-12-08T20:16:17.267Z,98039.45
2022-12-08T20:18:48.686Z,98041.91
2022-12-08T20:21:18.641Z,98044.87
2022-12-08T20:23:50.102Z,98045.41
2022-12-08T20:26:20.818Z,98052.78
2022-12-08T20:28:50.924Z,98042.41
2022-12-08T20:31:23.015Z,98047.32
2022-12-08T20:33:53.112Z,98052.50
2022-12-08T20:36:23.382Z,98042.09
2022-12-08T20:38:53.771Z,98040.73
2022-12-08T20:41:24.307Z,98036.64
2022-12-08T20:43:54.495Z,98044.01
2022-12-08T20:46:24.466Z,98044.01
2022-12-08T20:48:54.774Z,98038.00
2022-12-08T20:51:31.459Z,98033.63
2022-12-08T20:53:56.584Z,98036.09
2022-12-08T20:56:27.112Z,98039.33
2022-12-08T20:58:58.157Z,98042.37
2022-12-08T21:01:29.446Z,98048.06
2022-12-08T21:04:00.532Z,98048.60
2022-12-08T21:06:31.319Z,98051.56
2022-12-08T21:09:02.252Z,98051.88
2022-12-08T21:11:35.250Z,98048.33
2022-12-08T21:14:05.357Z,98046.95
2022-12-08T21:16:35.687Z,98050.75
2022-12-08T21:19:09.313Z,98047.47
2022-12-08T21:21:38.263Z,98050.20
2022-12-08T21:24:09.983Z,98049.92
2022-12-08T21:26:40.142Z,98052.66
2022-12-08T21:29:10.595Z,98053.73
2022-12-08T21:31:40.905Z,98050.47
2022-12-08T21:34:11.905Z,98042.83
2022-12-08T21:36:42.128Z,98046.06
2022-12-08T21:39:13.731Z,98050.16
2022-12-08T21:42:01.010Z,98050.16
2022-12-08T21:44:31.026Z,98048.52
2022-12-08T21:47:02.321Z,98055.34
2022-12-08T21:49:33.033Z,98059.98
2022-12-08T21:52:03.046Z,98062.70
2022-12-08T21:54:33.434Z,98062.70
2022-12-08T21:57:03.807Z,98052.88
2022-12-08T21:59:34.044Z,98057.48
2022-12-08T22:02:04.507Z,98060.21
2022-12-08T22:04:35.200Z,98053.39
2022-12-08T22:07:05.642Z,98049.84
2022-12-08T22:09:35.885Z,98050.66
2022-12-08T22:12:06.709Z,98055.30
2022-12-08T22:14:36.956Z,98052.56
2022-12-08T22:17:07.289Z,98050.92
2022-12-08T22:19:37.859Z,98057.75
2022-12-08T22:22:08.343Z,98055.84
2022-12-08T22:24:38.718Z,98056.38
2022-12-08T22:27:08.993Z,98058.30
2022-12-08T22:29:39.175Z,98054.71
2022-12-08T22:32:09.773Z,98058.80
2022-12-08T22:34:40.164Z,98059.66
2022-12-08T22:37:10.640Z,98057.98
2022-12-08T22:39:41.033Z,98054.16
2022-12-08T22:42:11.227Z,98052.80
2022-12-08T22:44:41.532Z,98057.70
2022-12-08T22:47:14.317Z,98055.52
2022-12-08T22:49:44.290Z,98053.84
2022-12-08T22:52:14.826Z,98054.39
2022-12-08T22:54:45.080Z,98051.08
2022-12-08T22:57:17.880Z,98050.25
2022-12-08T22:59:47.925Z,98060.94
2022-12-08T23:02:21.064Z,98056.53
2022-12-08T23:04:51.481Z,98060.34
2022-12-08T23:07:21.614Z,98064.98
2022-12-08T23:09:51.939Z,98068.25
2022-12-08T23:12:22.133Z,98061.95
2022-12-08T23:14:52.333Z,98068.77
2022-12-08T23:17:23.275Z,98048.91
2022-12-08T23:19:53.753Z,98048.91
2022-12-08T23:22:23.736Z,98070.94
2022-12-08T23:24:54.015Z,98059.72
2022-12-08T23:27:24.164Z,98055.94
2022-12-08T23:29:54.206Z,98058.35
2022-12-08T23:32:24.846Z,98064.86
2022-12-08T23:34:55.220Z,98055.86
2022-12-08T23:37:25.464Z,98056.91
2022-12-08T23:39:55.704Z,98061.00
2022-12-08T23:42:28.659Z,98061.55
2022-12-08T23:44:59.431Z,98054.73
2022-12-08T23:47:30.272Z,98057.72
2022-12-08T23:50:06.138Z,98048.45
2022-12-08T23:52:38.401Z,98049.00
2022-12-08T23:55:09.055Z,98050.59
2022-12-08T23:57:39.719Z,98052.50
